Time;durP1;ratioP1;P1;durP2;ratioP2;P2;SDS_P1;SDS_P2;PMS_P1;PMS_P2;Temp;Humidity;BMP_temperature;BMP_pressure;BME280_temperature;BME280_humidity;BME280_pressure;Samples;Min_cycle;Max_cycle;Signal;HPM_P1;HPM_P2
2021/06/19 00:01:46;;;;;;;28.20;17.42;;;;;;;18.89;100.00;101110.03;3599004;39;20032;-67
2021/06/19 00:06:58;;;;;;;20.25;15.90;;;;;;;18.94;100.00;101116.81;3575385;22;20036;-65
2021/06/19 00:09:26;;;;;;;19.80;15.15;;;;;;;18.97;100.00;101114.56;3597041;39;20051;-64
2021/06/19 00:11:53;;;;;;;18.77;15.40;;;;;;;19.00;100.00;101116.91;3597077;39;20443;-63
2021/06/19 00:14:20;;;;;;;20.27;15.93;;;;;;;19.08;100.00;101119.56;3597735;39;20051;-62
2021/06/19 00:16:48;;;;;;;18.70;14.55;;;;;;;19.14;100.00;101112.53;3597980;39;20043;-63
2021/06/19 00:19:15;;;;;;;20.33;15.10;;;;;;;19.12;100.00;101125.47;3597159;39;20040;-65
2021/06/19 00:21:42;;;;;;;20.13;14.73;;;;;;;19.14;100.00;101117.09;3597630;39;20081;-63
2021/06/19 00:24:09;;;;;;;16.95;12.70;;;;;;;19.21;100.00;101113.47;3597567;39;20070;-63
2021/06/19 00:26:37;;;;;;;15.05;13.30;;;;;;;19.21;100.00;101118.94;3598647;39;20055;-65
2021/06/19 00:29:03;;;;;;;19.05;13.48;;;;;;;19.44;100.00;101118.00;3597814;39;20047;-63
2021/06/19 00:31:30;;;;;;;16.48;12.50;;;;;;;19.39;100.00;101114.97;3598122;39;20050;-63
2021/06/19 00:33:57;;;;;;;16.60;12.20;;;;;;;19.46;100.00;101120.53;3598186;39;20338;-63
2021/06/19 00:36:23;;;;;;;17.10;13.20;;;;;;;19.39;100.00;101117.69;3597772;39;20118;-64
2021/06/19 00:38:50;;;;;;;12.77;11.48;;;;;;;19.48;100.00;101111.13;3598630;39;20081;-63
2021/06/19 00:41:16;;;;;;;17.70;13.40;;;;;;;19.38;100.00;101113.28;3597362;39;20047;-63
2021/06/19 00:43:44;;;;;;;16.10;12.65;;;;;;;19.24;100.00;101113.09;3598384;39;20318;-63
2021/06/19 00:46:10;;;;;;;13.38;12.02;;;;;;;19.30;100.00;101110.63;3597837;39;20046;-64
2021/06/19 00:48:37;;;;;;;17.75;12.15;;;;;;;19.29;100.00;101111.66;3599126;39;20056;-63
2021/06/19 00:51:04;;;;;;;14.88;12.82;;;;;;;19.36;100.00;101109.88;3598134;39;20047;-65
2021/06/19 00:53:32;;;;;;;16.95;13.10;;;;;;;19.30;100.00;101108.78;3598616;39;20052;-64
2021/06/19 00:55:58;;;;;;;14.60;12.13;;;;;;;19.25;100.00;101112.03;3598586;39;20052;-64
2021/06/19 00:58:25;;;;;;;19.45;12.80;;;;;;;19.23;100.00;101116.00;3598490;39;20047;-63
2021/06/19 01:00:52;;;;;;;19.80;13.70;;;;;;;19.23;100.00;101110.56;3598556;39;20053;-63
2021/06/19 01:03:20;;;;;;;17.80;13.70;;;;;;;19.29;100.00;101119.84;3597958;39;20036;-63
2021/06/19 01:05:47;;;;;;;15.80;13.45;;;;;;;19.24;100.00;101117.69;3597514;39;20373;-65
2021/06/19 01:08:13;;;;;;;16.77;13.50;;;;;;;19.28;100.00;101112.72;3597310;39;20136;-65
2021/06/19 01:10:40;;;;;;;14.18;12.68;;;;;;;19.32;100.00;101124.97;3597669;39;20039;-63
2021/06/19 01:15:34;;;;;;;13.88;12.25;;;;;;;19.40;100.00;101116.66;3565765;22;20043;-63
2021/06/19 01:18:02;;;;;;;17.95;12.00;;;;;;;19.36;100.00;101115.34;3596789;39;20056;-63
2021/06/19 01:20:29;;;;;;;17.60;14.10;;;;;;;19.30;100.00;101121.56;3596470;39;20125;-64
2021/06/19 01:22:56;;;;;;;15.20;13.60;;;;;;;19.26;100.00;101116.47;3597236;39;20404;-61
2021/06/19 01:25:26;;;;;;;18.65;14.15;;;;;;;19.17;100.00;101114.88;3596135;39;20063;-64
2021/06/19 01:27:54;;;;;;;18.20;15.27;;;;;;;19.23;100.00;101108.66;3597258;39;20088;-63
2021/06/19 01:30:22;;;;;;;17.05;14.35;;;;;;;19.12;100.00;101122.75;3596056;39;20409;-63
2021/06/19 01:32:50;;;;;;;17.75;15.75;;;;;;;19.15;100.00;101113.34;3596835;39;20043;-65
2021/06/19 01:35:17;;;;;;;19.23;16.40;;;;;;;19.14;100.00;101119.84;3597252;39;20070;-65
2021/06/19 01:37:45;;;;;;;18.05;13.93;;;;;;;19.16;100.00;101124.09;3597357;39;20574;-63
2021/06/19 01:40:13;;;;;;;17.98;15.65;;;;;;;19.14;100.00;101125.28;3596141;39;20063;-64
2021/06/19 01:42:43;;;;;;;22.27;16.33;;;;;;;19.18;100.00;101122.00;3596760;39;20424;-63
2021/06/19 01:45:12;;;;;;;;;;;;;;;19.09;100.00;101123.13;3595993;39;20147;-63
2021/06/19 01:47:39;;;;;;;16.65;14.75;;;;;;;19.14;100.00;101123.44;3597456;39;19946;-63
2021/06/19 01:50:06;;;;;;;19.45;16.58;;;;;;;19.00;100.00;101122.38;3597856;39;20036;-64
2021/06/19 01:52:33;;;;;;;20.08;17.08;;;;;;;19.16;100.00;101121.34;3598547;39;20058;-63
2021/06/19 01:54:59;;;;;;;17.45;14.57;;;;;;;19.00;100.00;101125.09;3595044;39;20051;-63
2021/06/19 01:57:26;;;;;;;20.42;16.33;;;;;;;19.06;100.00;101132.53;3597400;39;20060;-64
2021/06/19 02:00:01;;;;;;;18.50;16.13;;;;;;;19.06;100.00;101132.53;3596287;39;20067;-64
2021/06/19 02:02:27;;;;;;;19.60;16.10;;;;;;;19.06;100.00;101132.53;3596429;39;20044;-65
2021/06/19 02:04:54;;;;;;;24.17;17.63;;;;;;;19.01;100.00;101117.78;3596952;39;20359;-64
2021/06/19 02:07:20;;;;;;;20.17;15.95;;;;;;;18.96;100.00;129192.47;3598530;39;20387;-63
2021/06/19 02:09:46;;;;;;;21.98;16.65;;;;;;;18.91;100.00;101123.47;3596842;39;20077;-63
2021/06/19 02:12:13;;;;;;;20.50;17.23;;;;;;;18.91;100.00;101121.59;3596459;39;20421;-63
2021/06/19 02:14:39;;;;;;;18.10;16.15;;;;;;;18.88;100.00;101119.22;3595880;39;20082;-65
2021/06/19 02:17:07;;;;;;;22.65;16.67;;;;;;;18.88;100.00;128596.50;3597185;39;20047;-66
2021/06/19 02:19:34;;;;;;;20.80;17.08;;;;;;;18.85;100.00;101132.38;3597500;39;20061;-64
2021/06/19 02:22:00;;;;;;;21.17;15.80;;;;;;;18.85;100.00;101132.38;3596878;39;20059;-65
2021/06/19 02:24:27;;;;;;;26.40;16.35;;;;;;;18.85;100.00;101132.38;3597056;39;20054;-64
2021/06/19 02:27:07;;;;;;;18.17;15.93;;;;;;;18.87;100.00;101139.38;3597782;39;20060;-63
2021/06/19 02:31:59;;;;;;;21.48;16.63;;;;;;;18.76;100.00;101133.44;3665019;22;20055;-63
2021/06/19 02:34:27;;;;;;;19.70;16.80;;;;;;;18.70;100.00;101127.72;3591152;39;20063;-64
2021/06/19 02:36:53;;;;;;;21.13;16.52;;;;;;;18.76;100.00;101134.31;3595705;39;20058;-63
2021/06/19 02:39:20;;;;;;;19.60;17.45;;;;;;;18.75;100.00;101135.34;3594507;39;20047;-65
2021/06/19 02:41:46;;;;;;;23.98;18.48;;;;;;;18.68;100.00;101137.09;3596688;39;20148;-63
2021/06/19 02:44:13;;;;;;;20.80;18.58;;;;;;;-146.61;100.00;62835.00;3595091;39;20065;-64
2021/06/19 02:46:39;;;;;;;24.08;19.02;;;;;;;-146.61;100.00;62835.00;3596678;39;20264;-63
2021/06/19 02:49:05;;;;;;;22.70;18.55;;;;;;;-146.61;100.00;62835.00;3595997;39;20440;-64
2021/06/19 02:51:33;;;;;;;26.70;20.13;;;;;;;-146.61;100.00;62835.00;3596513;39;20085;-64
2021/06/19 02:54:00;;;;;;;24.40;19.77;;;;;;;-146.61;100.00;62835.00;3596261;39;20626;-64
2021/06/19 02:59:45;;;;;;;23.55;18.95;;;;;;;-146.61;100.00;62835.00;3619186;22;20040;-64
2021/06/19 03:02:11;;;;;;;25.30;18.33;;;;;;;-146.61;100.00;62835.00;3585762;39;20036;-66
2021/06/19 03:04:37;;;;;;;24.42;19.40;;;;;;;-146.61;100.00;62835.00;3586761;39;20059;-65
2021/06/19 03:07:05;;;;;;;22.10;19.75;;;;;;;-146.61;100.00;62835.00;3587003;39;20064;-64
2021/06/19 03:09:32;;;;;;;23.30;19.10;;;;;;;-146.61;100.00;62835.00;3585971;39;20147;-63
2021/06/19 03:11:58;;;;;;;26.13;18.85;;;;;;;-146.61;100.00;62835.00;3586500;39;20048;-65
2021/06/19 03:14:25;;;;;;;22.73;19.13;;;;;;;-146.61;100.00;62835.00;3585197;39;20050;-64
2021/06/19 03:16:51;;;;;;;24.77;18.83;;;;;;;-146.61;100.00;62835.00;3586852;39;20048;-65
2021/06/19 03:19:18;;;;;;;21.92;18.48;;;;;;;-146.61;100.00;62835.00;3587019;39;20065;-65
2021/06/19 03:21:45;;;;;;;20.63;16.95;;;;;;;-146.61;100.00;62835.00;3587015;39;20070;-65
2021/06/19 03:24:13;;;;;;;22.92;19.25;;;;;;;-146.61;100.00;62835.00;3585177;39;20085;-63
2021/06/19 03:26:39;;;;;;;20.63;18.10;;;;;;;-146.61;100.00;62835.00;3586144;39;20040;-63
2021/06/19 03:29:07;;;;;;;19.92;17.40;;;;;;;-146.61;100.00;62835.00;3583046;39;20406;-66
2021/06/19 03:31:34;;;;;;;24.75;19.23;;;;;;;-146.61;100.00;62835.00;3586850;39;20063;-63
2021/06/19 03:34:01;;;;;;;23.25;18.85;;;;;;;-146.61;100.00;62835.00;3585072;39;20064;-64
2021/06/19 03:36:28;;;;;;;25.58;20.65;;;;;;;-146.61;100.00;62835.00;3585774;39;20044;-63
2021/06/19 03:38:55;;;;;;;25.65;18.83;;;;;;;-146.61;100.00;62835.00;3585587;39;20048;-65
2021/06/19 03:41:22;;;;;;;24.10;17.92;;;;;;;-146.61;100.00;62835.00;3588175;39;20091;-64
2021/06/19 03:43:49;;;;;;;22.33;19.27;;;;;;;-146.61;100.00;62835.00;3588393;39;20646;-65
2021/06/19 03:46:15;;;;;;;26.75;19.80;;;;;;;-146.61;100.00;62835.00;3586974;39;20062;-63
2021/06/19 03:48:42;;;;;;;30.77;23.95;;;;;;;-146.61;100.00;62835.00;3587023;39;20051;-63
2021/06/19 03:51:08;;;;;;;27.05;23.38;;;;;;;-146.61;100.00;62835.00;3587911;39;20213;-63
2021/06/19 03:53:35;;;;;;;26.52;20.52;;;;;;;-146.61;100.00;62835.00;3588151;39;20387;-63
2021/06/19 03:56:01;;;;;;;38.50;26.75;;;;;;;-146.61;100.00;62835.00;3587364;39;20056;-65
2021/06/19 03:58:29;;;;;;;37.75;29.58;;;;;;;-146.61;100.00;62835.00;3587094;39;20044;-64
2021/06/19 04:00:55;;;;;;;43.72;32.83;;;;;;;-146.61;100.00;62835.00;3587606;39;20061;-63
2021/06/19 04:03:22;;;;;;;42.45;31.33;;;;;;;-146.61;100.00;62835.00;3587979;39;20072;-65
2021/06/19 04:05:48;;;;;;;44.53;31.55;;;;;;;-146.61;100.00;62835.00;3586832;39;20040;-66
2021/06/19 04:08:15;;;;;;;47.47;35.75;;;;;;;-146.61;100.00;62835.00;3586770;39;20062;-63
2021/06/19 04:10:41;;;;;;;63.58;41.90;;;;;;;-146.61;100.00;62835.00;3588375;39;20349;-64
2021/06/19 04:13:08;;;;;;;55.47;42.13;;;;;;;-146.61;100.00;62835.00;3587569;39;20067;-64
2021/06/19 04:15:35;;;;;;;56.95;38.95;;;;;;;-146.61;100.00;62835.00;3587205;39;20048;-64
2021/06/19 04:18:37;;;;;;;58.58;40.47;;;;;;;-146.61;100.00;62835.00;3621817;22;20059;-65
2021/06/19 04:21:04;;;;;;;57.40;40.83;;;;;;;-146.61;100.00;62835.00;3567795;40;20059;-64
2021/06/19 04:23:31;;;;;;;59.80;40.00;;;;;;;-146.61;100.00;62835.00;3573572;40;20060;-64
2021/06/19 04:25:57;;;;;;;62.88;38.47;;;;;;;-146.61;100.00;62835.00;3577607;40;20048;-65
2021/06/19 04:28:24;;;;;;;67.28;42.42;;;;;;;-146.61;100.00;62835.00;3565164;40;20055;-65
2021/06/19 04:30:53;;;;;;;66.35;42.83;;;;;;;-146.61;100.00;62835.00;3573730;40;20402;-63
2021/06/19 04:33:20;;;;;;;70.07;43.70;;;;;;;-146.61;100.00;62835.00;3654873;22;20084;-65
2021/06/19 04:35:46;;;;;;;69.38;43.55;;;;;;;-146.61;100.00;62835.00;3578409;39;20047;-64
2021/06/19 04:38:13;;;;;;;64.38;41.53;;;;;;;-146.61;100.00;62835.00;3597449;39;20059;-63
2021/06/19 04:40:41;;;;;;;66.88;44.42;;;;;;;-146.61;100.00;62835.00;3598038;39;20050;-65
2021/06/19 04:43:09;;;;;;;64.75;40.53;;;;;;;-146.61;100.00;62835.00;3595977;39;20054;-63
2021/06/19 04:45:37;;;;;;;60.38;40.08;;;;;;;-146.61;100.00;62835.00;3596358;39;20050;-65
2021/06/19 04:48:07;;;;;;;71.82;43.35;;;;;;;-146.61;100.00;62835.00;3597014;39;20051;-66
2021/06/19 04:50:36;;;;;;;70.72;44.15;;;;;;;-146.61;100.00;62835.00;3597219;39;20337;-63
2021/06/19 04:53:04;;;;;;;67.55;41.10;;;;;;;-146.61;100.00;62835.00;3596926;39;20046;-66
2021/06/19 04:55:31;;;;;;;64.75;40.88;;;;;;;-146.61;100.00;62835.00;3596709;39;20036;-64
2021/06/19 04:58:02;;;;;;;68.57;43.92;;;;;;;-146.61;100.00;62835.00;3591825;39;20062;-64
2021/06/19 05:00:29;;;;;;;69.28;42.90;;;;;;;-146.61;100.00;62835.00;3593423;39;20056;-64
2021/06/19 05:02:56;;;;;;;68.43;42.33;;;;;;;-146.61;100.00;62835.00;3596871;39;20051;-64
2021/06/19 05:05:24;;;;;;;66.63;39.20;;;;;;;-146.61;100.00;62835.00;3595504;39;20093;-64
2021/06/19 05:07:51;;;;;;;72.97;39.87;;;;;;;-146.61;100.00;62835.00;3596009;39;20321;-63
2021/06/19 05:10:18;;;;;;;62.47;39.63;;;;;;;-146.61;100.00;62835.00;3596784;39;20240;-64
2021/06/19 05:12:44;;;;;;;69.20;39.38;;;;;;;-146.61;100.00;62835.00;3597269;39;20334;-64
2021/06/19 05:15:13;;;;;;;67.90;38.13;;;;;;;-146.61;100.00;62835.00;3593621;39;20055;-64
2021/06/19 05:17:40;;;;;;;74.10;40.50;;;;;;;-146.61;100.00;62835.00;3596600;39;20063;-64
2021/06/19 05:20:08;;;;;;;66.93;38.40;;;;;;;-146.61;100.00;62835.00;3596412;39;20066;-65
2021/06/19 05:22:36;;;;;;;62.22;36.78;;;;;;;-146.61;100.00;62835.00;3596928;39;20051;-64
2021/06/19 05:25:03;;;;;;;72.20;39.47;;;;;;;-146.61;100.00;62835.00;3595227;39;20091;-64
2021/06/19 05:27:30;;;;;;;72.40;40.15;;;;;;;-146.61;100.00;62835.00;3596465;39;20258;-66
2021/06/19 05:29:56;;;;;;;74.70;42.42;;;;;;;-146.61;100.00;62835.00;3596551;39;20055;-64
2021/06/19 05:32:23;;;;;;;66.22;37.10;;;;;;;-146.61;100.00;62835.00;3595671;39;20058;-64
2021/06/19 05:34:50;;;;;;;68.75;37.85;;;;;;;-146.61;100.00;62835.00;3596187;39;20056;-65
2021/06/19 05:37:17;;;;;;;70.60;39.95;;;;;;;-146.61;100.00;62835.00;3595233;39;20365;-65
2021/06/19 05:39:44;;;;;;;70.80;39.08;;;;;;;-146.61;100.00;62835.00;3596688;39;20042;-65
2021/06/19 05:42:11;;;;;;;78.50;40.22;;;;;;;-146.61;100.00;62835.00;3597467;39;20068;-65
2021/06/19 05:44:38;;;;;;;71.80;39.33;;;;;;;-146.61;100.00;62835.00;3594849;39;20387;-65
2021/06/19 05:47:06;;;;;;;78.57;40.28;;;;;;;-146.61;100.00;62835.00;3596212;39;20059;-65
2021/06/19 05:49:32;;;;;;;82.10;39.92;;;;;;;-146.61;100.00;62835.00;3597135;39;20047;-66
2021/06/19 05:51:58;;;;;;;86.97;42.05;;;;;;;-146.61;100.00;62835.00;3597110;39;20039;-65
2021/06/19 05:54:25;;;;;;;78.93;39.95;;;;;;;-146.61;100.00;62835.00;3595274;39;20047;-65
2021/06/19 05:56:53;;;;;;;77.13;41.45;;;;;;;-146.61;100.00;62835.00;3597306;39;20439;-65
2021/06/19 05:59:19;;;;;;;88.28;42.40;;;;;;;-146.61;100.00;62835.00;3597746;39;20053;-65
2021/06/19 06:01:46;;;;;;;76.88;40.28;;;;;;;-146.61;100.00;62835.00;3664790;22;20032;-65
2021/06/19 06:04:12;;;;;;;81.60;41.83;;;;;;;-146.61;100.00;62835.00;3582494;40;20515;-67
2021/06/19 06:06:38;;;;;;;73.82;39.20;;;;;;;-146.61;100.00;62835.00;3580970;40;20375;-66
2021/06/19 06:09:05;;;;;;;70.60;38.53;;;;;;;-146.61;100.00;62835.00;3580677;40;20049;-64
2021/06/19 06:11:31;;;;;;;72.45;40.53;;;;;;;-146.61;100.00;62835.00;3591668;39;20067;-65
2021/06/19 06:13:59;;;;;;;80.25;40.67;;;;;;;-146.61;100.00;62835.00;3588952;39;20064;-65
2021/06/19 06:16:26;;;;;;;77.25;40.97;;;;;;;-146.61;100.00;62835.00;3591596;39;20056;-66
2021/06/19 06:18:52;;;;;;;79.00;39.67;;;;;;;-146.61;100.00;62835.00;3589545;39;20351;-64
2021/06/19 06:21:18;;;;;;;73.95;38.35;;;;;;;-146.61;100.00;62835.00;3590063;39;20048;-65
2021/06/19 06:23:46;;;;;;;64.22;37.78;;;;;;;-146.61;100.00;62835.00;3587520;40;20056;-65
2021/06/19 06:26:13;;;;;;;74.15;38.33;;;;;;;-146.61;100.00;62835.00;3585572;39;20394;-66
2021/06/19 06:28:39;;;;;;;70.57;38.50;;;;;;;-146.61;100.00;62835.00;3583555;39;20372;-65
2021/06/19 06:31:07;;;;;;;64.93;38.13;;;;;;;-146.61;100.00;62835.00;3586182;40;20559;-66
2021/06/19 06:33:33;;;;;;;64.32;37.97;;;;;;;-146.61;100.00;62835.00;3586066;39;20040;-65
2021/06/19 06:36:00;;;;;;;66.90;36.25;;;;;;;-146.61;100.00;62835.00;3589780;40;20075;-66
2021/06/19 06:38:26;;;;;;;54.08;33.80;;;;;;;-146.61;100.00;62835.00;3600673;39;20044;-65
2021/06/19 06:40:53;;;;;;;53.25;32.25;;;;;;;-146.61;100.00;62835.00;3602088;39;20564;-64
2021/06/19 06:43:19;;;;;;;57.35;32.13;;;;;;;-146.61;100.00;62835.00;3600054;39;20298;-64
2021/06/19 06:45:46;;;;;;;53.78;31.90;;;;;;;-146.61;100.00;62835.00;3599747;39;20051;-65
2021/06/19 06:48:14;;;;;;;57.97;32.33;;;;;;;-146.61;100.00;62835.00;3600160;39;20052;-66
2021/06/19 06:50:41;;;;;;;50.28;29.15;;;;;;;-146.61;100.00;62835.00;3601659;39;20056;-64
2021/06/19 06:53:07;;;;;;;52.80;29.65;;;;;;;-146.61;100.00;62835.00;3599290;39;20077;-64
2021/06/19 06:55:34;;;;;;;50.58;29.73;;;;;;;-146.61;100.00;62835.00;3599212;39;20051;-64
2021/06/19 06:58:00;;;;;;;46.45;27.15;;;;;;;-146.61;100.00;62835.00;3599457;39;20044;-65
2021/06/19 07:00:27;;;;;;;42.85;25.08;;;;;;;-146.61;100.00;62835.00;3600384;39;20059;-64
2021/06/19 07:02:53;;;;;;;41.30;25.48;;;;;;;-146.61;100.00;62835.00;3600527;39;20285;-64
2021/06/19 07:08:22;;;;;;;43.67;26.10;;;;;;;-146.61;100.00;62835.00;3614628;22;20435;-64
2021/06/19 07:10:49;;;;;;;41.67;27.25;;;;;;;-146.61;100.00;62835.00;3586541;39;20050;-66
2021/06/19 07:13:15;;;;;;;41.70;25.35;;;;;;;-146.61;100.00;62835.00;3586414;39;20079;-64
2021/06/19 07:15:44;;;;;;;39.88;25.10;;;;;;;-146.61;100.00;62835.00;3586811;40;20237;-64
2021/06/19 07:18:11;;;;;;;35.97;23.75;;;;;;;-146.61;100.00;62835.00;3587715;39;20322;-65
2021/06/19 07:20:37;;;;;;;28.45;18.63;;;;;;;-146.61;100.00;62835.00;3588439;39;20134;-65
2021/06/19 07:23:04;;;;;;;25.70;17.40;;;;;;;-146.61;100.00;62835.00;3584362;40;20066;-65
2021/06/19 07:25:32;;;;;;;21.52;14.38;;;;;;;-146.61;100.00;62835.00;3587997;39;20050;-66
2021/06/19 07:27:59;;;;;;;20.48;14.13;;;;;;;-146.61;100.00;62835.00;3587381;39;20071;-66
2021/06/19 07:30:26;;;;;;;14.48;11.45;;;;;;;-146.61;100.00;62835.00;3588026;39;20086;-66
2021/06/19 07:32:53;;;;;;;14.23;10.75;;;;;;;-146.61;100.00;62835.00;3585868;39;20048;-65
2021/06/19 07:35:20;;;;;;;15.65;9.88;;;;;;;-146.61;100.00;62835.00;3586283;39;20055;-65
2021/06/19 07:37:46;;;;;;;12.20;10.20;;;;;;;-146.61;100.00;62835.00;3587251;39;20382;-65
2021/06/19 07:40:14;;;;;;;10.90;8.52;;;;;;;-146.61;100.00;62835.00;3587682;39;20082;-64
2021/06/19 07:42:43;;;;;;;9.73;8.10;;;;;;;-146.61;100.00;62835.00;3585701;39;20378;-65
2021/06/19 07:45:10;;;;;;;11.20;8.70;;;;;;;-146.61;100.00;62835.00;3586643;39;20145;-64
2021/06/19 07:50:06;;;;;;;;;;;;;;;-146.61;100.00;62835.00;3628430;22;20056;-63
2021/06/19 07:52:32;;;;;;;10.70;9.20;;;;;;;-146.61;100.00;62835.00;3606346;39;20246;-65
2021/06/19 07:54:59;;;;;;;11.07;9.27;;;;;;;-146.61;100.00;62835.00;3596760;39;20055;-64
2021/06/19 07:57:25;;;;;;;13.02;10.05;;;;;;;-146.61;100.00;62835.00;3607608;39;20107;-63
2021/06/19 07:59:53;;;;;;;14.00;10.60;;;;;;;-146.61;100.00;62835.00;3608164;39;20054;-64
2021/06/19 08:02:20;;;;;;;14.23;10.40;;;;;;;-146.61;100.00;62835.00;3606577;39;20576;-63
2021/06/19 08:04:46;;;;;;;16.80;12.88;;;;;;;-146.61;100.00;62835.00;3607789;39;20040;-63
2021/06/19 08:07:13;;;;;;;14.80;11.60;;;;;;;-146.61;100.00;62835.00;3608446;39;20043;-63
2021/06/19 08:09:39;;;;;;;13.82;10.88;;;;;;;-146.61;100.00;62835.00;3608492;39;20059;-64
2021/06/19 08:12:07;;;;;;;16.42;11.38;;;;;;;-146.61;100.00;62835.00;3608007;39;20047;-62
2021/06/19 08:14:34;;;;;;;15.85;11.18;;;;;;;-146.61;100.00;62835.00;3606362;39;20039;-64
2021/06/19 08:17:08;;;;;;;15.45;11.55;;;;;;;-146.61;100.00;62835.00;3608057;39;20131;-63
2021/06/19 08:19:34;;;;;;;16.50;12.38;;;;;;;-146.61;100.00;62835.00;3608669;39;20124;-63
2021/06/19 08:22:01;;;;;;;15.63;12.45;;;;;;;-146.61;100.00;62835.00;3608075;39;20042;-65
2021/06/19 08:24:28;;;;;;;16.77;13.50;;;;;;;-146.61;100.00;62835.00;3605991;39;20259;-64
2021/06/19 08:26:54;;;;;;;15.52;13.00;;;;;;;-146.61;100.00;62835.00;3607527;39;20414;-64
2021/06/19 08:29:21;;;;;;;14.15;12.38;;;;;;;-146.61;100.00;62835.00;3608426;39;20053;-63
2021/06/19 08:31:47;;;;;;;14.55;11.77;;;;;;;-146.61;100.00;62835.00;3607811;39;20069;-63
2021/06/19 08:34:15;;;;;;;15.70;12.27;;;;;;;-146.61;100.00;62835.00;3606930;39;20055;-64
2021/06/19 08:36:42;;;;;;;12.55;10.45;;;;;;;-146.61;100.00;62835.00;3607541;39;20044;-66
2021/06/19 08:39:08;;;;;;;12.05;10.75;;;;;;;-146.61;100.00;62835.00;3607079;39;20403;-64
2021/06/19 08:41:35;;;;;;;13.23;10.68;;;;;;;-146.61;100.00;62835.00;3606836;39;20063;-65
2021/06/19 08:44:02;;;;;;;12.93;11.10;;;;;;;-146.61;100.00;62835.00;3605170;39;20056;-64
2021/06/19 08:46:30;;;;;;;13.15;11.05;;;;;;;-146.61;100.00;62835.00;3596738;39;20562;-64
2021/06/19 08:48:57;;;;;;;12.77;10.73;;;;;;;-146.61;100.00;62835.00;3597174;39;20053;-65
2021/06/19 08:51:26;;;;;;;14.85;11.35;;;;;;;-146.61;100.00;62835.00;3603315;39;20043;-65
2021/06/19 08:53:53;;;;;;;13.10;11.48;;;;;;;-146.61;100.00;62835.00;3607374;39;20047;-64
2021/06/19 08:56:21;;;;;;;13.95;10.98;;;;;;;-146.61;100.00;62835.00;3607934;39;20099;-64
2021/06/19 08:58:48;;;;;;;14.95;11.20;;;;;;;-146.61;100.00;62835.00;3607848;39;20055;-64
2021/06/19 09:01:15;;;;;;;14.10;11.27;;;;;;;-146.61;100.00;62835.00;3606237;39;20057;-64
2021/06/19 09:03:41;;;;;;;15.40;11.57;;;;;;;-146.61;100.00;62835.00;3605218;39;20046;-64
2021/06/19 09:06:19;;;;;;;13.00;11.43;;;;;;;-146.61;100.00;62835.00;3605964;39;20402;-66
2021/06/19 09:09:08;;;;;;;16.48;12.13;;;;;;;-146.61;100.00;62835.00;3605882;39;20050;-65
2021/06/19 09:11:37;;;;;;;15.52;13.25;;;;;;;-146.61;100.00;62835.00;3606184;39;20073;-64
2021/06/19 09:14:06;;;;;;;17.08;13.70;;;;;;;-146.61;100.00;62835.00;3605373;39;20302;-64
2021/06/19 09:16:33;;;;;;;22.65;13.98;;;;;;;-146.61;100.00;62835.00;3606059;39;20934;-65
2021/06/19 09:18:59;;;;;;;19.92;14.35;;;;;;;-146.61;100.00;62835.00;3606372;39;20058;-65
2021/06/19 09:21:32;;;;;;;19.67;15.15;;;;;;;-146.61;100.00;62835.00;3608153;39;20045;-64
2021/06/19 09:26:30;;;;;;;16.48;14.38;;;;;;;-146.61;100.00;62835.00;3617306;22;20569;-64
2021/06/19 09:29:13;;;;;;;18.80;15.25;;;;;;;-146.61;100.00;62835.00;3574858;40;21021;-64
2021/06/19 09:31:46;;;;;;;21.48;14.60;;;;;;;-146.61;100.00;62835.00;3576539;40;20071;-67
2021/06/19 09:34:16;;;;;;;15.27;12.15;;;;;;;-146.61;100.00;62835.00;3574762;40;20064;-60
2021/06/19 09:36:46;;;;;;;14.80;13.30;;;;;;;-146.61;100.00;62835.00;3575650;40;20992;-63
2021/06/19 09:39:14;;;;;;;13.02;11.70;;;;;;;-146.61;100.00;62835.00;3575120;40;20049;-63
2021/06/19 09:41:44;;;;;;;13.02;11.73;;;;;;;-146.61;100.00;62835.00;3575588;40;20366;-65
2021/06/19 09:44:11;;;;;;;13.38;11.93;;;;;;;-146.61;100.00;62835.00;3575349;40;20059;-64
2021/06/19 09:46:37;;;;;;;12.38;10.85;;;;;;;-146.61;100.00;62835.00;3575846;40;20670;-64
2021/06/19 09:49:12;;;;;;;13.50;10.43;;;;;;;-146.61;100.00;62835.00;3575966;40;20067;-65
2021/06/19 09:51:46;;;;;;;12.27;10.52;;;;;;;-146.61;100.00;62835.00;3577370;40;20396;-65
2021/06/19 09:54:13;;;;;;;10.50;9.38;;;;;;;-146.61;100.00;62835.00;3577956;40;20043;-64
2021/06/19 09:56:52;;;;;;;11.70;10.50;;;;;;;-146.61;100.00;62835.00;3577955;40;20056;-62
2021/06/19 09:59:19;;;;;;;;;;;;;;;-146.61;100.00;62835.00;3578040;40;20100;-63
2021/06/19 10:01:45;;;;;;;11.50;10.45;;;;;;;-146.61;100.00;62835.00;3578082;40;19939;-63
2021/06/19 10:04:15;;;;;;;12.43;9.90;;;;;;;-146.61;100.00;62835.00;3576773;40;20346;-63
2021/06/19 10:06:42;;;;;;;12.23;9.98;;;;;;;-146.61;100.00;62835.00;3577922;40;20078;-65
2021/06/19 10:09:09;;;;;;;10.65;9.23;;;;;;;-146.61;100.00;62835.00;3577457;40;20068;-63
2021/06/19 10:11:39;;;;;;;12.48;9.30;;;;;;;-146.61;100.00;62835.00;3578685;40;20418;-63
2021/06/19 10:14:10;;;;;;;9.70;8.55;;;;;;;-146.61;100.00;62835.00;3577740;40;20502;-63
2021/06/19 10:16:40;;;;;;;11.68;8.73;;;;;;;-146.61;100.00;62835.00;3578335;40;20050;-63
2021/06/19 10:19:07;;;;;;;14.18;10.00;;;;;;;-146.61;100.00;62835.00;3578345;40;20091;-63
2021/06/19 10:21:34;;;;;;;14.00;10.52;;;;;;;-146.61;100.00;62835.00;3578093;40;20057;-63
2021/06/19 10:24:01;;;;;;;10.68;9.43;;;;;;;-146.61;100.00;62835.00;3578379;40;20088;-63
2021/06/19 10:26:28;;;;;;;11.80;9.20;;;;;;;-146.61;100.00;62835.00;3578077;40;20048;-63
2021/06/19 10:28:57;;;;;;;10.10;9.13;;;;;;;-146.61;100.00;62835.00;3577733;40;20063;-64
2021/06/19 10:31:26;;;;;;;10.60;9.52;;;;;;;-146.61;100.00;62835.00;3578333;40;20067;-63
2021/06/19 10:33:53;;;;;;;9.93;8.75;;;;;;;-146.61;100.00;62835.00;3578358;40;20041;-63
2021/06/19 10:36:20;;;;;;;11.15;9.68;;;;;;;-146.61;100.00;62835.00;3578230;40;20077;-63
2021/06/19 10:38:50;;;;;;;9.68;8.75;;;;;;;-146.61;100.00;62835.00;3579030;40;20264;-63
2021/06/19 10:41:17;;;;;;;11.25;10.18;;;;;;;-146.61;100.00;62835.00;3578501;40;20064;-63
2021/06/19 10:43:46;;;;;;;11.00;9.93;;;;;;;-146.61;100.00;62835.00;3649237;22;20103;-63
2021/06/19 10:46:34;;;;;;;26.25;11.57;;;;;;;-146.61;100.00;62835.00;3587713;40;20044;-64
2021/06/19 10:49:01;;;;;;;13.02;10.55;;;;;;;-146.61;100.00;62835.00;3588692;40;20527;-64
2021/06/19 10:51:31;;;;;;;17.75;10.85;;;;;;;-146.61;100.00;62835.00;3585551;40;20054;-63
2021/06/19 10:54:14;;;;;;;11.75;10.65;;;;;;;-146.61;100.00;62835.00;3589204;40;20044;-64
2021/06/19 10:56:50;;;;;;;16.98;10.50;;;;;;;-146.61;100.00;62835.00;3588798;40;20306;-64
2021/06/19 10:59:18;;;;;;;10.82;9.73;;;;;;;-146.61;100.00;62835.00;3589250;40;20044;-65
2021/06/19 11:01:46;;;;;;;11.68;10.45;;;;;;;-146.61;100.00;62835.00;3588677;39;20063;-64
2021/06/19 11:04:45;;;;;;;11.20;10.10;;;;;;;-146.61;100.00;62835.00;3589082;39;20051;-66
2021/06/19 11:07:40;;;;;;;;;;;;;;;-146.61;100.00;62835.00;3588590;39;20048;-63
2021/06/19 11:10:07;;;;;;;13.77;10.65;;;;;;;-146.61;100.00;62835.00;3588966;40;19948;-63
2021/06/19 11:12:33;;;;;;;14.85;12.20;;;;;;;-146.61;100.00;62835.00;3589053;40;20061;-63
2021/06/19 11:15:02;;;;;;;16.05;10.02;;;;;;;-146.61;100.00;62835.00;3589199;40;20041;-63
2021/06/19 11:17:49;;;;;;;14.20;11.40;;;;;;;-146.61;100.00;62835.00;3589045;40;20091;-63
2021/06/19 11:20:29;;;;;;;13.35;10.93;;;;;;;-146.61;100.00;62835.00;3587879;39;20060;-63